sensor_id;sensor_type;location;lat;lon;timestamp;pressure;altitude;pressure_sealevel;temperature;humidity
5814;BME280;2933;52.302;8.134;2023-10-13T00:02:30;100155.75;;;15.11;100.00
5814;BME280;2933;52.302;8.134;2023-10-13T00:07:35;100139.34;;;14.97;100.00
5814;BME280;2933;52.302;8.134;2023-10-13T00:12:37;100147.28;;;15.07;100.00
5814;BME280;2933;52.302;8.134;2023-10-13T00:17:39;100150.06;;;15.15;100.00
5814;BME280;2933;52.302;8.134;2023-10-13T00:22:43;100131.88;;;15.02;100.00
5814;BME280;2933;52.302;8.134;2023-10-13T00:27:45;100107.34;;;14.92;100.00
5814;BME280;2933;52.302;8.134;2023-10-13T00:32:52;100136.38;;;15.12;100.00
5814;BME280;2933;52.302;8.134;2023-10-13T00:37:58;100132.75;;;15.13;100.00
5814;BME280;2933;52.302;8.134;2023-10-13T00:43:04;100126.53;;;15.14;100.00
5814;BME280;2933;52.302;8.134;2023-10-13T00:48:31;100120.44;;;15.13;100.00
5814;BME280;2933;52.302;8.134;2023-10-13T00:53:37;100108.13;;;15.14;100.00
5814;BME280;2933;52.302;8.134;2023-10-13T00:58:40;100109.41;;;15.19;100.00
5814;BME280;2933;52.302;8.134;2023-10-13T01:03:45;100104.13;;;15.19;100.00
5814;BME280;2933;52.302;8.134;2023-10-13T01:08:57;100100.78;;;15.17;100.00
5814;BME280;2933;52.302;8.134;2023-10-13T01:13:59;100094.88;;;15.25;100.00
5814;BME280;2933;52.302;8.134;2023-10-13T01:19:04;100090.59;;;15.24;100.00
5814;BME280;2933;52.302;8.134;2023-10-13T01:24:14;100081.13;;;15.22;100.00
5814;BME280;2933;52.302;8.134;2023-10-13T01:29:18;100072.41;;;15.21;100.00
5814;BME280;2933;52.302;8.134;2023-10-13T01:34:28;100079.94;;;15.35;100.00
5814;BME280;2933;52.302;8.134;2023-10-13T01:39:35;100082.16;;;15.30;100.00
5814;BME280;2933;52.302;8.134;2023-10-13T01:44:36;100070.38;;;15.34;100.00
5814;BME280;2933;52.302;8.134;2023-10-13T01:49:39;100065.53;;;15.30;100.00
5814;BME280;2933;52.302;8.134;2023-10-13T01:54:45;100053.75;;;15.34;100.00
5814;BME280;2933;52.302;8.134;2023-10-13T01:59:47;100059.00;;;15.34;100.00
5814;BME280;2933;52.302;8.134;2023-10-13T02:04:49;100050.72;;;15.39;100.00
5814;BME280;2933;52.302;8.134;2023-10-13T02:09:59;100034.94;;;15.39;100.00
5814;BME280;2933;52.302;8.134;2023-10-13T02:15:05;100024.81;;;15.34;100.00
5814;BME280;2933;52.302;8.134;2023-10-13T02:20:10;100045.88;;;15.44;100.00
5814;BME280;2933;52.302;8.134;2023-10-13T02:25:17;100010.97;;;15.32;100.00
5814;BME280;2933;52.302;8.134;2023-10-13T02:30:37;100017.63;;;15.46;100.00
5814;BME280;2933;52.302;8.134;2023-10-13T02:35:44;100007.09;;;15.46;100.00
5814;BME280;2933;52.302;8.134;2023-10-13T02:40:55;100005.28;;;15.46;100.00
5814;BME280;2933;52.302;8.134;2023-10-13T02:45:56;99998.78;;;15.41;100.00
5814;BME280;2933;52.302;8.134;2023-10-13T02:51:00;99983.00;;;15.41;100.00
5814;BME280;2933;52.302;8.134;2023-10-13T02:56:08;99986.31;;;15.43;100.00
5814;BME280;2933;52.302;8.134;2023-10-13T03:01:14;99986.19;;;15.44;100.00
5814;BME280;2933;52.302;8.134;2023-10-13T03:06:19;99978.97;;;15.46;100.00
5814;BME280;2933;52.302;8.134;2023-10-13T03:11:26;99967.31;;;15.49;100.00
5814;BME280;2933;52.302;8.134;2023-10-13T03:16:33;99968.88;;;15.42;100.00
5814;BME280;2933;52.302;8.134;2023-10-13T03:21:35;99957.63;;;15.40;100.00
5814;BME280;2933;52.302;8.134;2023-10-13T03:26:38;99958.91;;;15.45;100.00
5814;BME280;2933;52.302;8.134;2023-10-13T03:31:45;99960.53;;;15.46;100.00
5814;BME280;2933;52.302;8.134;2023-10-13T03:36:46;99946.16;;;15.50;100.00
5814;BME280;2933;52.302;8.134;2023-10-13T03:41:59;99934.22;;;15.46;100.00
5814;BME280;2933;52.302;8.134;2023-10-13T03:47:05;99929.66;;;15.48;100.00
5814;BME280;2933;52.302;8.134;2023-10-13T03:52:18;99925.09;;;15.50;100.00
5814;BME280;2933;52.302;8.134;2023-10-13T03:57:24;99915.38;;;15.51;100.00
5814;BME280;2933;52.302;8.134;2023-10-13T04:02:26;99912.34;;;15.46;100.00
5814;BME280;2933;52.302;8.134;2023-10-13T04:07:28;99913.31;;;15.55;100.00
5814;BME280;2933;52.302;8.134;2023-10-13T04:13:03;99915.38;;;15.51;100.00
5814;BME280;2933;52.302;8.134;2023-10-13T04:18:37;99901.53;;;15.49;100.00
5814;BME280;2933;52.302;8.134;2023-10-13T04:24:04;99897.50;;;15.55;100.00
5814;BME280;2933;52.302;8.134;2023-10-13T04:29:30;99890.03;;;15.60;100.00
5814;BME280;2933;52.302;8.134;2023-10-13T04:34:46;99876.59;;;15.63;100.00
5814;BME280;2933;52.302;8.134;2023-10-13T04:39:51;99857.47;;;15.61;100.00
5814;BME280;2933;52.302;8.134;2023-10-13T04:44:59;99841.13;;;15.57;100.00
5814;BME280;2933;52.302;8.134;2023-10-13T04:50:16;99831.69;;;15.55;100.00
5814;BME280;2933;52.302;8.134;2023-10-13T04:55:34;99831.56;;;15.56;100.00
5814;BME280;2933;52.302;8.134;2023-10-13T05:01:02;99823.81;;;15.55;100.00
5814;BME280;2933;52.302;8.134;2023-10-13T05:06:44;99797.47;;;15.55;100.00
5814;BME280;2933;52.302;8.134;2023-10-13T05:12:03;99793.31;;;15.52;100.00
5814;BME280;2933;52.302;8.134;2023-10-13T05:17:23;99795.00;;;15.53;100.00
5814;BME280;2933;52.302;8.134;2023-10-13T05:22:54;99793.75;;;15.47;100.00
5814;BME280;2933;52.302;8.134;2023-10-13T05:28:13;99790.28;;;15.57;100.00
5814;BME280;2933;52.302;8.134;2023-10-13T05:33:33;99755.56;;;15.33;100.00
5814;BME280;2933;52.302;8.134;2023-10-13T05:38:52;99783.34;;;15.56;100.00
5814;BME280;2933;52.302;8.134;2023-10-13T05:44:11;99763.97;;;15.47;100.00
5814;BME280;2933;52.302;8.134;2023-10-13T05:49:31;99745.28;;;15.40;100.00
5814;BME280;2933;52.302;8.134;2023-10-13T05:54:50;99731.53;;;15.46;100.00
5814;BME280;2933;52.302;8.134;2023-10-13T06:00:10;99718.38;;;15.46;100.00
5814;BME280;2933;52.302;8.134;2023-10-13T06:05:30;99716.47;;;15.39;100.00
5814;BME280;2933;52.302;8.134;2023-10-13T06:10:49;99692.09;;;15.37;100.00
5814;BME280;2933;52.302;8.134;2023-10-13T06:16:11;99706.34;;;15.44;100.00
5814;BME280;2933;52.302;8.134;2023-10-13T06:21:31;99711.06;;;15.40;100.00
5814;BME280;2933;52.302;8.134;2023-10-13T06:26:50;99699.19;;;15.36;100.00
5814;BME280;2933;52.302;8.134;2023-10-13T06:32:09;99696.78;;;15.43;100.00
5814;BME280;2933;52.302;8.134;2023-10-13T06:37:13;99673.69;;;15.37;100.00
5814;BME280;2933;52.302;8.134;2023-10-13T06:42:25;99681.66;;;15.55;100.00
5814;BME280;2933;52.302;8.134;2023-10-13T06:47:28;99677.47;;;15.62;100.00
5814;BME280;2933;52.302;8.134;2023-10-13T06:52:31;99668.69;;;15.71;100.00
5814;BME280;2933;52.302;8.134;2023-10-13T06:57:33;99673.81;;;15.73;100.00
5814;BME280;2933;52.302;8.134;2023-10-13T07:02:37;99670.03;;;15.85;100.00
5814;BME280;2933;52.302;8.134;2023-10-13T07:07:40;99659.53;;;15.75;100.00
5814;BME280;2933;52.302;8.134;2023-10-13T07:12:42;99679.72;;;15.85;100.00
5814;BME280;2933;52.302;8.134;2023-10-13T07:17:44;99682.69;;;15.99;100.00
5814;BME280;2933;52.302;8.134;2023-10-13T07:22:48;99672.53;;;16.05;100.00
5814;BME280;2933;52.302;8.134;2023-10-13T07:27:57;99683.09;;;16.23;100.00
5814;BME280;2933;52.302;8.134;2023-10-13T07:32:59;99675.19;;;16.23;100.00
5814;BME280;2933;52.302;8.134;2023-10-13T07:38:02;99682.72;;;16.36;100.00
5814;BME280;2933;52.302;8.134;2023-10-13T07:43:08;99664.06;;;16.29;100.00
5814;BME280;2933;52.302;8.134;2023-10-13T07:48:13;99676.84;;;16.42;100.00
5814;BME280;2933;52.302;8.134;2023-10-13T07:53:20;99661.56;;;16.27;100.00
5814;BME280;2933;52.302;8.134;2023-10-13T07:58:24;99676.69;;;16.43;100.00
5814;BME280;2933;52.302;8.134;2023-10-13T08:03:26;99647.25;;;16.30;100.00
5814;BME280;2933;52.302;8.134;2023-10-13T08:08:45;99662.53;;;16.44;100.00
5814;BME280;2933;52.302;8.134;2023-10-13T08:13:52;99659.13;;;16.52;100.00
5814;BME280;2933;52.302;8.134;2023-10-13T08:18:56;99651.44;;;16.59;100.00
5814;BME280;2933;52.302;8.134;2023-10-13T08:24:04;99649.50;;;16.61;100.00
5814;BME280;2933;52.302;8.134;2023-10-13T08:29:07;99633.88;;;16.68;100.00
5814;BME280;2933;52.302;8.134;2023-10-13T08:34:24;99633.34;;;16.90;100.00
5814;BME280;2933;52.302;8.134;2023-10-13T08:39:31;99630.28;;;16.95;100.00
5814;BME280;2933;52.302;8.134;2023-10-13T08:44:47;99624.69;;;16.98;100.00
5814;BME280;2933;52.302;8.134;2023-10-13T08:49:53;99592.72;;;17.01;100.00
5814;BME280;2933;52.302;8.134;2023-10-13T08:55:12;99580.00;;;16.96;100.00
5814;BME280;2933;52.302;8.134;2023-10-13T09:00:42;99574.88;;;16.95;100.00
5814;BME280;2933;52.302;8.134;2023-10-13T09:06:13;99539.03;;;16.84;100.00
5814;BME280;2933;52.302;8.134;2023-10-13T09:11:21;99531.22;;;17.01;100.00
5814;BME280;2933;52.302;8.134;2023-10-13T09:16:27;99549.75;;;17.17;100.00
5814;BME280;2933;52.302;8.134;2023-10-13T09:21:42;99539.38;;;17.24;100.00
5814;BME280;2933;52.302;8.134;2023-10-13T09:26:58;99529.03;;;17.31;100.00
5814;BME280;2933;52.302;8.134;2023-10-13T09:32:02;99525.56;;;17.47;100.00
5814;BME280;2933;52.302;8.134;2023-10-13T09:37:05;99512.72;;;17.60;100.00
5814;BME280;2933;52.302;8.134;2023-10-13T09:42:12;99504.84;;;17.68;100.00
5814;BME280;2933;52.302;8.134;2023-10-13T09:47:21;99489.16;;;17.83;100.00
5814;BME280;2933;52.302;8.134;2023-10-13T09:52:31;99501.56;;;17.99;100.00
5814;BME280;2933;52.302;8.134;2023-10-13T09:57:36;99477.75;;;18.07;100.00
5814;BME280;2933;52.302;8.134;2023-10-13T10:02:43;99476.91;;;18.32;100.00
5814;BME280;2933;52.302;8.134;2023-10-13T10:07:54;99473.41;;;18.48;100.00
5814;BME280;2933;52.302;8.134;2023-10-13T10:13:02;99476.66;;;18.66;100.00
5814;BME280;2933;52.302;8.134;2023-10-13T10:18:18;99476.91;;;18.80;100.00
5814;BME280;2933;52.302;8.134;2023-10-13T10:23:24;99483.84;;;18.97;100.00
5814;BME280;2933;52.302;8.134;2023-10-13T10:28:38;99478.09;;;19.17;100.00
5814;BME280;2933;52.302;8.134;2023-10-13T10:33:42;99454.69;;;19.29;100.00
5814;BME280;2933;52.302;8.134;2023-10-13T10:38:52;99445.91;;;19.51;100.00
5814;BME280;2933;52.302;8.134;2023-10-13T10:43:56;99459.59;;;19.63;100.00
5814;BME280;2933;52.302;8.134;2023-10-13T10:49:03;99445.75;;;19.53;100.00
5814;BME280;2933;52.302;8.134;2023-10-13T10:54:17;99429.72;;;19.69;100.00
5814;BME280;2933;52.302;8.134;2023-10-13T10:59:21;99429.38;;;20.11;100.00
5814;BME280;2933;52.302;8.134;2023-10-13T11:04:25;99429.28;;;20.04;100.00
5814;BME280;2933;52.302;8.134;2023-10-13T11:09:35;99403.41;;;20.21;100.00
5814;BME280;2933;52.302;8.134;2023-10-13T11:14:47;99390.31;;;20.49;100.00
5814;BME280;2933;52.302;8.134;2023-10-13T11:19:50;99399.06;;;20.50;100.00
5814;BME280;2933;52.302;8.134;2023-10-13T11:24:52;99390.50;;;20.48;100.00
5814;BME280;2933;52.302;8.134;2023-10-13T11:29:55;99361.19;;;20.56;100.00
5814;BME280;2933;52.302;8.134;2023-10-13T11:35:06;99375.31;;;20.42;100.00
5814;BME280;2933;52.302;8.134;2023-10-13T11:40:11;99350.19;;;20.23;100.00
5814;BME280;2933;52.302;8.134;2023-10-13T11:45:14;99359.63;;;20.25;100.00
5814;BME280;2933;52.302;8.134;2023-10-13T11:50:29;99343.34;;;20.28;100.00
5814;BME280;2933;52.302;8.134;2023-10-13T11:55:35;99343.41;;;20.35;100.00
5814;BME280;2933;52.302;8.134;2023-10-13T12:00:38;99326.22;;;20.31;100.00
5814;BME280;2933;52.302;8.134;2023-10-13T12:06:08;99314.09;;;20.58;100.00
5814;BME280;2933;52.302;8.134;2023-10-13T12:11:22;99319.06;;;20.83;100.00
5814;BME280;2933;52.302;8.134;2023-10-13T12:16:40;99301.19;;;20.92;100.00
5814;BME280;2933;52.302;8.134;2023-10-13T12:21:43;99275.31;;;21.01;100.00
5814;BME280;2933;52.302;8.134;2023-10-13T12:26:45;99299.25;;;21.29;100.00
5814;BME280;2933;52.302;8.134;2023-10-13T12:31:48;99281.00;;;21.19;100.00
5814;BME280;2933;52.302;8.134;2023-10-13T12:37:01;99278.81;;;21.01;100.00
5814;BME280;2933;52.302;8.134;2023-10-13T12:42:25;99251.16;;;20.89;100.00
5814;BME280;2933;52.302;8.134;2023-10-13T12:47:45;99257.50;;;20.94;100.00
5814;BME280;2933;52.302;8.134;2023-10-13T12:53:04;99258.63;;;21.07;100.00
5814;BME280;2933;52.302;8.134;2023-10-13T12:58:05;99237.25;;;21.15;100.00
5814;BME280;2933;52.302;8.134;2023-10-13T13:03:08;99240.34;;;21.19;100.00
5814;BME280;2933;52.302;8.134;2023-10-13T13:08:13;99227.75;;;21.27;100.00
5814;BME280;2933;52.302;8.134;2023-10-13T13:13:22;99245.75;;;21.60;100.00
5814;BME280;2933;52.302;8.134;2023-10-13T13:18:27;99237.22;;;21.72;100.00
5814;BME280;2933;52.302;8.134;2023-10-13T13:23:28;99235.47;;;21.86;100.00
5814;BME280;2933;52.302;8.134;2023-10-13T13:28:31;99215.63;;;21.88;100.00
5814;BME280;2933;52.302;8.134;2023-10-13T13:33:39;99225.47;;;22.01;100.00
5814;BME280;2933;52.302;8.134;2023-10-13T13:38:44;99213.88;;;22.22;100.00
5814;BME280;2933;52.302;8.134;2023-10-13T13:43:49;99221.72;;;22.37;100.00
5814;BME280;2933;52.302;8.134;2023-10-13T13:48:58;99221.28;;;22.34;100.00
5814;BME280;2933;52.302;8.134;2023-10-13T13:54:01;99208.19;;;22.32;100.00
5814;BME280;2933;52.302;8.134;2023-10-13T13:59:06;99211.03;;;22.24;100.00
5814;BME280;2933;52.302;8.134;2023-10-13T14:04:10;99195.25;;;22.22;100.00
5814;BME280;2933;52.302;8.134;2023-10-13T14:09:14;99189.91;;;22.09;100.00
5814;BME280;2933;52.302;8.134;2023-10-13T14:14:16;99189.31;;;22.07;100.00
5814;BME280;2933;52.302;8.134;2023-10-13T14:19:33;99203.34;;;21.87;100.00
5814;BME280;2933;52.302;8.134;2023-10-13T14:24:35;99206.56;;;21.76;100.00
5814;BME280;2933;52.302;8.134;2023-10-13T14:29:43;99198.25;;;21.86;100.00
5814;BME280;2933;52.302;8.134;2023-10-13T14:34:46;99199.22;;;21.78;100.00
5814;BME280;2933;52.302;8.134;2023-10-13T14:39:54;99200.63;;;21.74;100.00
5814;BME280;2933;52.302;8.134;2023-10-13T14:44:57;99209.69;;;21.86;100.00
5814;BME280;2933;52.302;8.134;2023-10-13T14:50:02;99190.22;;;21.79;100.00
5814;BME280;2933;52.302;8.134;2023-10-13T14:55:08;99181.59;;;21.70;100.00
5814;BME280;2933;52.302;8.134;2023-10-13T15:00:19;99189.41;;;21.78;95.80
5814;BME280;2933;52.302;8.134;2023-10-13T15:05:27;99180.31;;;21.59;97.55
5814;BME280;2933;52.302;8.134;2023-10-13T15:10:30;99204.88;;;21.61;97.19
5814;BME280;2933;52.302;8.134;2023-10-13T15:15:31;99214.38;;;21.49;98.46
5814;BME280;2933;52.302;8.134;2023-10-13T15:20:40;99197.00;;;21.46;98.94
5814;BME280;2933;52.302;8.134;2023-10-13T15:25:44;99215.13;;;21.36;100.00
5814;BME280;2933;52.302;8.134;2023-10-13T15:30:50;99215.72;;;21.31;99.32
5814;BME280;2933;52.302;8.134;2023-10-13T15:35:58;99211.59;;;21.29;98.32
5814;BME280;2933;52.302;8.134;2023-10-13T15:41:00;99201.47;;;21.11;100.00
5814;BME280;2933;52.302;8.134;2023-10-13T15:46:14;99210.66;;;20.80;100.00
5814;BME280;2933;52.302;8.134;2023-10-13T15:51:18;99194.06;;;20.56;100.00
5814;BME280;2933;52.302;8.134;2023-10-13T15:56:20;99203.53;;;20.44;100.00
5814;BME280;2933;52.302;8.134;2023-10-13T16:01:22;99188.81;;;20.20;100.00
5814;BME280;2933;52.302;8.134;2023-10-13T16:06:26;99192.19;;;20.28;100.00
5814;BME280;2933;52.302;8.134;2023-10-13T16:11:29;99181.13;;;20.25;100.00
5814;BME280;2933;52.302;8.134;2023-10-13T16:16:31;99172.16;;;20.26;100.00
5814;BME280;2933;52.302;8.134;2023-10-13T16:21:36;99176.47;;;20.27;100.00
5814;BME280;2933;52.302;8.134;2023-10-13T16:26:39;99178.47;;;20.25;100.00
5814;BME280;2933;52.302;8.134;2023-10-13T16:31:43;99177.66;;;20.24;100.00
5814;BME280;2933;52.302;8.134;2023-10-13T16:36:48;99176.69;;;20.10;100.00
5814;BME280;2933;52.302;8.134;2023-10-13T16:41:54;99158.00;;;20.18;100.00
5814;BME280;2933;52.302;8.134;2023-10-13T16:46:56;99165.22;;;20.25;100.00
5814;BME280;2933;52.302;8.134;2023-10-13T16:52:01;99160.91;;;20.24;100.00
5814;BME280;2933;52.302;8.134;2023-10-13T16:57:03;99159.09;;;20.24;100.00
5814;BME280;2933;52.302;8.134;2023-10-13T17:02:05;99155.56;;;20.17;100.00
5814;BME280;2933;52.302;8.134;2023-10-13T17:07:08;99178.72;;;20.08;100.00
5814;BME280;2933;52.302;8.134;2023-10-13T17:12:13;99178.56;;;19.80;100.00
5814;BME280;2933;52.302;8.134;2023-10-13T17:17:15;99174.84;;;19.59;100.00
5814;BME280;2933;52.302;8.134;2023-10-13T17:22:18;99182.25;;;19.49;100.00
5814;BME280;2933;52.302;8.134;2023-10-13T17:27:19;99180.25;;;19.21;100.00
5814;BME280;2933;52.302;8.134;2023-10-13T17:32:22;99167.09;;;18.98;100.00
5814;BME280;2933;52.302;8.134;2023-10-13T17:37:25;99139.50;;;18.92;100.00
5814;BME280;2933;52.302;8.134;2023-10-13T17:42:26;99122.47;;;18.95;100.00
5814;BME280;2933;52.302;8.134;2023-10-13T17:47:28;99124.75;;;18.98;100.00
5814;BME280;2933;52.302;8.134;2023-10-13T17:52:32;99101.47;;;19.08;100.00
5814;BME280;2933;52.302;8.134;2023-10-13T17:57:36;99072.72;;;18.90;100.00
5814;BME280;2933;52.302;8.134;2023-10-13T18:02:39;99092.34;;;19.11;100.00
5814;BME280;2933;52.302;8.134;2023-10-13T18:07:44;99075.72;;;19.17;100.00
5814;BME280;2933;52.302;8.134;2023-10-13T18:12:48;99086.50;;;19.15;100.00
5814;BME280;2933;52.302;8.134;2023-10-13T18:17:50;99070.88;;;19.20;100.00
5814;BME280;2933;52.302;8.134;2023-10-13T18:22:54;99068.88;;;19.23;100.00
5814;BME280;2933;52.302;8.134;2023-10-13T18:27:59;99088.50;;;19.28;100.00
5814;BME280;2933;52.302;8.134;2023-10-13T18:33:04;99101.00;;;19.19;100.00
5814;BME280;2933;52.302;8.134;2023-10-13T18:38:08;99104.91;;;18.79;100.00
5814;BME280;2933;52.302;8.134;2023-10-13T18:43:10;99091.88;;;18.39;100.00
5814;BME280;2933;52.302;8.134;2023-10-13T18:48:12;99078.34;;;18.19;100.00
5814;BME280;2933;52.302;8.134;2023-10-13T18:53:16;99084.09;;;17.91;100.00
5814;BME280;2933;52.302;8.134;2023-10-13T18:58:18;99082.22;;;17.76;100.00
5814;BME280;2933;52.302;8.134;2023-10-13T19:03:22;99089.31;;;17.76;100.00
5814;BME280;2933;52.302;8.134;2023-10-13T19:08:31;99090.03;;;17.70;100.00
5814;BME280;2933;52.302;8.134;2023-10-13T19:13:33;99095.13;;;17.71;100.00
5814;BME280;2933;52.302;8.134;2023-10-13T19:18:36;99116.00;;;17.58;100.00
5814;BME280;2933;52.302;8.134;2023-10-13T19:23:39;99125.13;;;17.47;100.00
5814;BME280;2933;52.302;8.134;2023-10-13T19:28:40;99103.53;;;17.35;100.00
5814;BME280;2933;52.302;8.134;2023-10-13T19:33:43;99112.81;;;17.23;100.00
5814;BME280;2933;52.302;8.134;2023-10-13T19:38:46;99105.09;;;17.13;100.00
5814;BME280;2933;52.302;8.134;2023-10-13T19:43:49;99078.28;;;17.09;100.00
5814;BME280;2933;52.302;8.134;2023-10-13T19:48:52;99068.22;;;16.96;100.00
5814;BME280;2933;52.302;8.134;2023-10-13T19:53:56;99082.97;;;16.66;100.00
5814;BME280;2933;52.302;8.134;2023-10-13T19:58:58;99086.09;;;16.70;100.00
5814;BME280;2933;52.302;8.134;2023-10-13T20:04:01;99084.94;;;16.64;100.00
5814;BME280;2933;52.302;8.134;2023-10-13T20:09:08;99075.84;;;16.58;100.00
5814;BME280;2933;52.302;8.134;2023-10-13T20:14:23;99062.84;;;16.57;100.00
5814;BME280;2933;52.302;8.134;2023-10-13T20:19:24;99060.06;;;16.42;100.00
5814;BME280;2933;52.302;8.134;2023-10-13T20:24:27;99039.00;;;16.42;100.00
5814;BME280;2933;52.302;8.134;2023-10-13T20:29:29;99031.56;;;16.37;100.00
5814;BME280;2933;52.302;8.134;2023-10-13T20:34:30;99021.03;;;16.37;100.00
5814;BME280;2933;52.302;8.134;2023-10-13T20:39:35;99002.63;;;16.29;100.00
5814;BME280;2933;52.302;8.134;2023-10-13T20:44:37;99005.38;;;16.44;100.00
5814;BME280;2933;52.302;8.134;2023-10-13T20:49:41;98994.69;;;16.37;100.00
5814;BME280;2933;52.302;8.134;2023-10-13T20:54:50;98975.59;;;16.27;100.00
5814;BME280;2933;52.302;8.134;2023-10-13T20:59:51;99024.19;;;16.33;100.00
5814;BME280;2933;52.302;8.134;2023-10-13T21:04:54;98986.97;;;16.27;100.00
5814;BME280;2933;52.302;8.134;2023-10-13T21:09:57;98981.84;;;16.26;100.00
5814;BME280;2933;52.302;8.134;2023-10-13T21:14:59;98985.00;;;16.13;100.00
5814;BME280;2933;52.302;8.134;2023-10-13T21:20:01;98987.31;;;16.08;100.00
5814;BME280;2933;52.302;8.134;2023-10-13T21:25:07;98979.59;;;16.06;100.00
5814;BME280;2933;52.302;8.134;2023-10-13T21:30:20;98964.13;;;16.11;100.00
5814;BME280;2933;52.302;8.134;2023-10-13T21:35:32;98956.69;;;16.15;100.00
5814;BME280;2933;52.302;8.134;2023-10-13T21:40:39;98933.13;;;16.13;100.00
5814;BME280;2933;52.302;8.134;2023-10-13T21:45:41;98931.16;;;16.15;100.00
5814;BME280;2933;52.302;8.134;2023-10-13T21:50:46;98908.13;;;16.18;100.00
5814;BME280;2933;52.302;8.134;2023-10-13T21:55:54;98898.06;;;16.21;100.00
5814;BME280;2933;52.302;8.134;2023-10-13T22:00:56;98889.31;;;16.21;100.00
5814;BME280;2933;52.302;8.134;2023-10-13T22:06:01;98875.53;;;16.10;100.00
5814;BME280;2933;52.302;8.134;2023-10-13T22:11:07;98867.09;;;16.23;100.00
5814;BME280;2933;52.302;8.134;2023-10-13T22:16:13;98865.59;;;16.29;100.00
5814;BME280;2933;52.302;8.134;2023-10-13T22:21:20;98871.84;;;16.28;100.00
5814;BME280;2933;52.302;8.134;2023-10-13T22:26:33;98823.16;;;16.15;100.00
5814;BME280;2933;52.302;8.134;2023-10-13T22:31:37;98844.53;;;16.29;100.00
5814;BME280;2933;52.302;8.134;2023-10-13T22:36:42;98828.53;;;16.30;100.00
5814;BME280;2933;52.302;8.134;2023-10-13T22:41:45;98820.50;;;16.24;100.00
5814;BME280;2933;52.302;8.134;2023-10-13T22:46:50;98803.00;;;16.31;100.00
5814;BME280;2933;52.302;8.134;2023-10-13T22:51:55;98802.84;;;16.33;100.00
5814;BME280;2933;52.302;8.134;2023-10-13T22:56:59;98788.03;;;16.31;100.00
5814;BME280;2933;52.302;8.134;2023-10-13T23:02:03;98782.59;;;16.25;100.00
5814;BME280;2933;52.302;8.134;2023-10-13T23:07:05;98779.59;;;16.36;100.00
5814;BME280;2933;52.302;8.134;2023-10-13T23:12:20;98771.16;;;16.41;100.00
5814;BME280;2933;52.302;8.134;2023-10-13T23:17:26;98789.59;;;16.41;100.00
5814;BME280;2933;52.302;8.134;2023-10-13T23:22:29;98766.38;;;16.44;100.00
5814;BME280;2933;52.302;8.134;2023-10-13T23:27:32;98749.94;;;16.42;100.00
5814;BME280;2933;52.302;8.134;2023-10-13T23:32:36;98736.22;;;16.47;100.00
5814;BME280;2933;52.302;8.134;2023-10-13T23:37:41;98721.84;;;16.50;100.00
5814;BME280;2933;52.302;8.134;2023-10-13T23:42:44;98757.44;;;16.54;100.00
5814;BME280;2933;52.302;8.134;2023-10-13T23:47:55;98802.06;;;16.55;100.00
5814;BME280;2933;52.302;8.134;2023-10-13T23:52:59;98815.75;;;16.19;100.00
5814;BME280;2933;52.302;8.134;2023-10-13T23:58:05;98776.97;;;15.80;100.00
